sensor_id;sensor_type;location;lat;lon;timestamp;temperature;humidity
1351;DHT22;669;50.206;9.998;2024-03-17T00:00:38;2.40;12.70
1351;DHT22;669;50.206;9.998;2024-03-17T00:03:05;2.30;12.70
1351;DHT22;669;50.206;9.998;2024-03-17T00:05:33;2.30;13.30
1351;DHT22;669;50.206;9.998;2024-03-17T00:08:01;2.30;13.30
1351;DHT22;669;50.206;9.998;2024-03-17T00:10:30;2.20;13.40
1351;DHT22;669;50.206;9.998;2024-03-17T00:12:56;2.20;13.70
1351;DHT22;669;50.206;9.998;2024-03-17T00:15:24;2.20;13.90
1351;DHT22;669;50.206;9.998;2024-03-17T00:17:50;2.20;14.00
1351;DHT22;669;50.206;9.998;2024-03-17T00:20:17;2.20;14.40
1351;DHT22;669;50.206;9.998;2024-03-17T00:22:46;2.20;14.60
1351;DHT22;669;50.206;9.998;2024-03-17T00:25:15;2.20;14.40
1351;DHT22;669;50.206;9.998;2024-03-17T00:27:41;2.20;15.00
1351;DHT22;669;50.206;9.998;2024-03-17T00:30:11;2.30;15.20
1351;DHT22;669;50.206;9.998;2024-03-17T00:32:38;2.30;15.20
1351;DHT22;669;50.206;9.998;2024-03-17T00:35:06;2.30;14.80
1351;DHT22;669;50.206;9.998;2024-03-17T00:37:33;2.30;14.50
1351;DHT22;669;50.206;9.998;2024-03-17T00:40:00;2.30;14.60
1351;DHT22;669;50.206;9.998;2024-03-17T00:42:28;2.20;14.30
1351;DHT22;669;50.206;9.998;2024-03-17T00:44:55;2.20;13.90
1351;DHT22;669;50.206;9.998;2024-03-17T00:47:22;2.20;13.90
1351;DHT22;669;50.206;9.998;2024-03-17T00:49:49;2.20;13.80
1351;DHT22;669;50.206;9.998;2024-03-17T00:52:16;2.20;14.20
1351;DHT22;669;50.206;9.998;2024-03-17T00:54:43;2.20;13.60
1351;DHT22;669;50.206;9.998;2024-03-17T00:57:09;2.10;13.70
1351;DHT22;669;50.206;9.998;2024-03-17T00:59:37;2.10;13.50
1351;DHT22;669;50.206;9.998;2024-03-17T01:02:04;2.10;13.70
1351;DHT22;669;50.206;9.998;2024-03-17T01:04:31;2.10;12.50
1351;DHT22;669;50.206;9.998;2024-03-17T01:06:59;2.00;13.20
1351;DHT22;669;50.206;9.998;2024-03-17T01:09:26;2.00;12.90
1351;DHT22;669;50.206;9.998;2024-03-17T01:11:52;1.90;13.30
1351;DHT22;669;50.206;9.998;2024-03-17T01:14:19;1.90;14.30
1351;DHT22;669;50.206;9.998;2024-03-17T01:16:46;1.80;14.30
1351;DHT22;669;50.206;9.998;2024-03-17T01:19:13;1.80;14.20
1351;DHT22;669;50.206;9.998;2024-03-17T01:21:39;1.80;14.10
1351;DHT22;669;50.206;9.998;2024-03-17T01:24:06;1.70;13.90
1351;DHT22;669;50.206;9.998;2024-03-17T01:26:32;1.70;14.60
1351;DHT22;669;50.206;9.998;2024-03-17T01:28:59;1.70;14.70
1351;DHT22;669;50.206;9.998;2024-03-17T01:31:25;1.70;15.00
1351;DHT22;669;50.206;9.998;2024-03-17T01:33:53;1.70;15.50
1351;DHT22;669;50.206;9.998;2024-03-17T01:36:19;1.70;15.10
1351;DHT22;669;50.206;9.998;2024-03-17T01:38:46;1.70;14.90
1351;DHT22;669;50.206;9.998;2024-03-17T01:41:12;1.70;14.70
1351;DHT22;669;50.206;9.998;2024-03-17T01:43:40;1.70;15.00
1351;DHT22;669;50.206;9.998;2024-03-17T01:46:06;1.70;14.50
1351;DHT22;669;50.206;9.998;2024-03-17T01:48:35;1.70;14.70
1351;DHT22;669;50.206;9.998;2024-03-17T01:51:03;1.70;14.30
1351;DHT22;669;50.206;9.998;2024-03-17T01:53:30;1.80;13.90
1351;DHT22;669;50.206;9.998;2024-03-17T01:55:58;1.70;14.20
1351;DHT22;669;50.206;9.998;2024-03-17T01:58:26;1.70;14.30
1351;DHT22;669;50.206;9.998;2024-03-17T02:00:53;1.60;14.70
1351;DHT22;669;50.206;9.998;2024-03-17T02:03:20;1.60;14.40
1351;DHT22;669;50.206;9.998;2024-03-17T02:05:47;1.60;14.70
1351;DHT22;669;50.206;9.998;2024-03-17T02:08:15;1.60;14.80
1351;DHT22;669;50.206;9.998;2024-03-17T02:10:42;1.50;14.80
1351;DHT22;669;50.206;9.998;2024-03-17T02:13:09;1.40;15.10
1351;DHT22;669;50.206;9.998;2024-03-17T02:15:36;1.40;15.10
1351;DHT22;669;50.206;9.998;2024-03-17T02:18:03;1.40;15.10
1351;DHT22;669;50.206;9.998;2024-03-17T02:20:30;1.40;15.10
1351;DHT22;669;50.206;9.998;2024-03-17T02:23:13;1.40;15.00
1351;DHT22;669;50.206;9.998;2024-03-17T02:25:40;1.40;15.40
1351;DHT22;669;50.206;9.998;2024-03-17T02:28:06;1.40;15.10
1351;DHT22;669;50.206;9.998;2024-03-17T02:30:33;1.30;15.20
1351;DHT22;669;50.206;9.998;2024-03-17T02:32:59;1.40;15.40
1351;DHT22;669;50.206;9.998;2024-03-17T02:35:26;1.40;15.20
1351;DHT22;669;50.206;9.998;2024-03-17T02:37:52;1.40;15.20
1351;DHT22;669;50.206;9.998;2024-03-17T02:40:20;1.30;14.90
1351;DHT22;669;50.206;9.998;2024-03-17T02:42:46;1.30;15.20
1351;DHT22;669;50.206;9.998;2024-03-17T02:45:13;1.30;15.10
1351;DHT22;669;50.206;9.998;2024-03-17T02:47:40;1.30;15.00
1351;DHT22;669;50.206;9.998;2024-03-17T02:50:08;1.20;15.10
1351;DHT22;669;50.206;9.998;2024-03-17T02:52:35;1.20;15.10
1351;DHT22;669;50.206;9.998;2024-03-17T02:55:02;1.20;15.10
1351;DHT22;669;50.206;9.998;2024-03-17T02:57:31;1.20;14.90
1351;DHT22;669;50.206;9.998;2024-03-17T02:59:58;1.20;15.20
1351;DHT22;669;50.206;9.998;2024-03-17T03:02:25;1.10;15.00
1351;DHT22;669;50.206;9.998;2024-03-17T03:04:53;1.10;14.90
1351;DHT22;669;50.206;9.998;2024-03-17T03:07:20;1.10;15.90
1351;DHT22;669;50.206;9.998;2024-03-17T03:09:47;1.20;15.20
1351;DHT22;669;50.206;9.998;2024-03-17T03:12:13;1.10;14.20
1351;DHT22;669;50.206;9.998;2024-03-17T03:14:42;1.00;14.40
1351;DHT22;669;50.206;9.998;2024-03-17T03:17:09;1.00;14.90
1351;DHT22;669;50.206;9.998;2024-03-17T03:19:36;1.00;15.20
1351;DHT22;669;50.206;9.998;2024-03-17T03:22:03;1.00;15.20
1351;DHT22;669;50.206;9.998;2024-03-17T03:24:30;1.00;15.10
1351;DHT22;669;50.206;9.998;2024-03-17T03:26:58;0.90;15.40
1351;DHT22;669;50.206;9.998;2024-03-17T03:29:25;0.90;15.70
1351;DHT22;669;50.206;9.998;2024-03-17T03:31:53;0.80;15.60
1351;DHT22;669;50.206;9.998;2024-03-17T03:34:20;0.80;15.80
1351;DHT22;669;50.206;9.998;2024-03-17T03:36:47;0.80;16.30
1351;DHT22;669;50.206;9.998;2024-03-17T03:39:14;0.80;15.80
1351;DHT22;669;50.206;9.998;2024-03-17T03:41:41;0.80;15.70
1351;DHT22;669;50.206;9.998;2024-03-17T03:44:08;0.80;15.60
1351;DHT22;669;50.206;9.998;2024-03-17T03:46:36;0.70;15.90
1351;DHT22;669;50.206;9.998;2024-03-17T03:49:04;0.70;16.00
1351;DHT22;669;50.206;9.998;2024-03-17T03:51:31;0.70;16.40
1351;DHT22;669;50.206;9.998;2024-03-17T03:53:58;0.70;16.20
1351;DHT22;669;50.206;9.998;2024-03-17T03:56:25;0.80;16.30
1351;DHT22;669;50.206;9.998;2024-03-17T03:58:52;0.80;16.40
1351;DHT22;669;50.206;9.998;2024-03-17T04:01:19;0.70;16.30
1351;DHT22;669;50.206;9.998;2024-03-17T04:03:48;0.70;16.80
1351;DHT22;669;50.206;9.998;2024-03-17T04:06:17;0.70;17.40
1351;DHT22;669;50.206;9.998;2024-03-17T04:08:44;0.70;17.50
1351;DHT22;669;50.206;9.998;2024-03-17T04:11:11;0.70;17.60
1351;DHT22;669;50.206;9.998;2024-03-17T04:13:38;0.80;18.10
1351;DHT22;669;50.206;9.998;2024-03-17T04:16:06;0.80;17.60
1351;DHT22;669;50.206;9.998;2024-03-17T04:18:33;0.80;16.70
1351;DHT22;669;50.206;9.998;2024-03-17T04:21:02;0.80;16.50
1351;DHT22;669;50.206;9.998;2024-03-17T04:23:30;0.70;16.50
1351;DHT22;669;50.206;9.998;2024-03-17T04:25:58;0.70;16.60
1351;DHT22;669;50.206;9.998;2024-03-17T04:28:25;0.70;16.20
1351;DHT22;669;50.206;9.998;2024-03-17T04:30:52;0.80;15.90
1351;DHT22;669;50.206;9.998;2024-03-17T04:33:20;0.70;14.30
1351;DHT22;669;50.206;9.998;2024-03-17T04:35:47;0.60;14.90
1351;DHT22;669;50.206;9.998;2024-03-17T04:38:14;0.60;15.80
1351;DHT22;669;50.206;9.998;2024-03-17T04:40:43;0.60;16.80
1351;DHT22;669;50.206;9.998;2024-03-17T04:43:10;0.60;16.80
1351;DHT22;669;50.206;9.998;2024-03-17T04:45:37;0.70;16.70
1351;DHT22;669;50.206;9.998;2024-03-17T04:48:04;0.60;16.00
1351;DHT22;669;50.206;9.998;2024-03-17T04:50:33;0.60;15.80
1351;DHT22;669;50.206;9.998;2024-03-17T04:53:00;0.60;16.00
1351;DHT22;669;50.206;9.998;2024-03-17T04:55:27;0.50;16.20
1351;DHT22;669;50.206;9.998;2024-03-17T04:57:55;0.50;16.70
1351;DHT22;669;50.206;9.998;2024-03-17T05:00:23;0.50;16.60
1351;DHT22;669;50.206;9.998;2024-03-17T05:02:50;0.50;16.50
1351;DHT22;669;50.206;9.998;2024-03-17T05:05:17;0.50;15.90
1351;DHT22;669;50.206;9.998;2024-03-17T05:07:44;0.40;16.00
1351;DHT22;669;50.206;9.998;2024-03-17T05:10:11;0.50;16.50
1351;DHT22;669;50.206;9.998;2024-03-17T05:12:38;0.50;16.30
1351;DHT22;669;50.206;9.998;2024-03-17T05:15:07;0.50;16.10
1351;DHT22;669;50.206;9.998;2024-03-17T05:17:34;0.40;16.80
1351;DHT22;669;50.206;9.998;2024-03-17T05:20:01;0.40;17.60
1351;DHT22;669;50.206;9.998;2024-03-17T05:22:28;0.50;17.50
1351;DHT22;669;50.206;9.998;2024-03-17T05:24:56;0.50;17.50
1351;DHT22;669;50.206;9.998;2024-03-17T05:27:23;0.50;17.20
1351;DHT22;669;50.206;9.998;2024-03-17T05:29:50;0.50;17.60
1351;DHT22;669;50.206;9.998;2024-03-17T05:32:18;0.50;17.90
1351;DHT22;669;50.206;9.998;2024-03-17T05:34:45;0.60;18.40
1351;DHT22;669;50.206;9.998;2024-03-17T05:37:12;0.60;18.50
1351;DHT22;669;50.206;9.998;2024-03-17T05:39:39;0.70;17.60
1351;DHT22;669;50.206;9.998;2024-03-17T05:42:07;0.70;17.90
1351;DHT22;669;50.206;9.998;2024-03-17T05:44:34;0.80;18.50
1351;DHT22;669;50.206;9.998;2024-03-17T05:47:18;0.90;18.70
1351;DHT22;669;50.206;9.998;2024-03-17T05:49:45;0.90;19.30
1351;DHT22;669;50.206;9.998;2024-03-17T05:52:12;1.10;19.10
1351;DHT22;669;50.206;9.998;2024-03-17T05:54:39;1.10;18.80
1351;DHT22;669;50.206;9.998;2024-03-17T05:57:06;1.10;18.50
1351;DHT22;669;50.206;9.998;2024-03-17T05:59:35;1.20;18.50
1351;DHT22;669;50.206;9.998;2024-03-17T06:02:02;1.20;18.20
1351;DHT22;669;50.206;9.998;2024-03-17T06:04:30;1.30;17.90
1351;DHT22;669;50.206;9.998;2024-03-17T06:06:57;1.30;17.50
1351;DHT22;669;50.206;9.998;2024-03-17T06:09:25;1.30;17.60
1351;DHT22;669;50.206;9.998;2024-03-17T06:11:52;1.40;17.20
1351;DHT22;669;50.206;9.998;2024-03-17T06:14:19;1.40;17.30
1351;DHT22;669;50.206;9.998;2024-03-17T06:16:46;1.40;18.00
1351;DHT22;669;50.206;9.998;2024-03-17T06:19:13;1.50;17.50
1351;DHT22;669;50.206;9.998;2024-03-17T06:21:42;1.50;17.40
1351;DHT22;669;50.206;9.998;2024-03-17T06:24:09;1.50;17.80
1351;DHT22;669;50.206;9.998;2024-03-17T06:26:36;1.60;17.20
1351;DHT22;669;50.206;9.998;2024-03-17T06:29:03;1.60;16.90
1351;DHT22;669;50.206;9.998;2024-03-17T06:31:30;1.70;17.40
1351;DHT22;669;50.206;9.998;2024-03-17T06:33:57;1.80;17.70
1351;DHT22;669;50.206;9.998;2024-03-17T06:36:25;1.90;17.20
1351;DHT22;669;50.206;9.998;2024-03-17T06:38:53;2.00;17.70
1351;DHT22;669;50.206;9.998;2024-03-17T06:41:20;2.20;17.70
1351;DHT22;669;50.206;9.998;2024-03-17T06:43:47;2.40;17.10
1351;DHT22;669;50.206;9.998;2024-03-17T06:46:15;2.60;16.70
1351;DHT22;669;50.206;9.998;2024-03-17T06:48:42;2.80;16.30
1351;DHT22;669;50.206;9.998;2024-03-17T06:51:09;3.10;15.60
1351;DHT22;669;50.206;9.998;2024-03-17T06:53:36;3.50;14.50
1351;DHT22;669;50.206;9.998;2024-03-17T06:56:05;3.90;13.50
1351;DHT22;669;50.206;9.998;2024-03-17T06:58:32;4.40;11.70
1351;DHT22;669;50.206;9.998;2024-03-17T07:01:00;4.60;8.30
1351;DHT22;669;50.206;9.998;2024-03-17T07:03:27;4.60;5.80
1351;DHT22;669;50.206;9.998;2024-03-17T07:05:56;4.80;7.00
1351;DHT22;669;50.206;9.998;2024-03-17T07:08:24;5.10;6.40
1351;DHT22;669;50.206;9.998;2024-03-17T07:10:56;5.20;5.70
1351;DHT22;669;50.206;9.998;2024-03-17T07:13:24;5.30;5.60
1351;DHT22;669;50.206;9.998;2024-03-17T07:15:51;5.20;3.80
1351;DHT22;669;50.206;9.998;2024-03-17T07:18:18;5.00;3.50
1351;DHT22;669;50.206;9.998;2024-03-17T07:20:45;4.90;5.20
1351;DHT22;669;50.206;9.998;2024-03-17T07:23:13;4.90;5.20
1351;DHT22;669;50.206;9.998;2024-03-17T07:25:41;5.00;5.40
1351;DHT22;669;50.206;9.998;2024-03-17T07:28:08;5.10;5.40
1351;DHT22;669;50.206;9.998;2024-03-17T07:30:36;5.20;5.20
1351;DHT22;669;50.206;9.998;2024-03-17T07:33:04;5.30;3.80
1351;DHT22;669;50.206;9.998;2024-03-17T07:35:31;5.50;4.20
1351;DHT22;669;50.206;9.998;2024-03-17T07:37:58;5.60;4.10
1351;DHT22;669;50.206;9.998;2024-03-17T07:40:25;5.70;5.10
1351;DHT22;669;50.206;9.998;2024-03-17T07:42:52;5.80;3.80
1351;DHT22;669;50.206;9.998;2024-03-17T07:45:19;5.90;4.40
1351;DHT22;669;50.206;9.998;2024-03-17T07:47:50;6.10;3.40
1351;DHT22;669;50.206;9.998;2024-03-17T07:50:17;6.20;4.00
1351;DHT22;669;50.206;9.998;2024-03-17T07:52:44;6.30;3.80
1351;DHT22;669;50.206;9.998;2024-03-17T07:55:11;6.40;3.50
1351;DHT22;669;50.206;9.998;2024-03-17T07:57:38;6.50;3.30
1351;DHT22;669;50.206;9.998;2024-03-17T08:00:07;6.60;3.50
1351;DHT22;669;50.206;9.998;2024-03-17T08:02:41;6.70;4.90
1351;DHT22;669;50.206;9.998;2024-03-17T08:05:11;6.90;5.20
1351;DHT22;669;50.206;9.998;2024-03-17T08:07:39;7.10;3.40
1351;DHT22;669;50.206;9.998;2024-03-17T08:10:08;7.30;1.70
1351;DHT22;669;50.206;9.998;2024-03-17T08:12:35;7.60;1.40
1351;DHT22;669;50.206;9.998;2024-03-17T08:15:02;8.00;1.00
1351;DHT22;669;50.206;9.998;2024-03-17T08:17:29;8.40;1.00
1351;DHT22;669;50.206;9.998;2024-03-17T08:19:56;8.90;1.00
1351;DHT22;669;50.206;9.998;2024-03-17T08:22:24;9.20;1.00
1351;DHT22;669;50.206;9.998;2024-03-17T08:24:51;9.80;1.00
1351;DHT22;669;50.206;9.998;2024-03-17T08:27:19;10.40;1.00
1351;DHT22;669;50.206;9.998;2024-03-17T08:29:46;10.80;1.00
1351;DHT22;669;50.206;9.998;2024-03-17T08:32:13;11.00;1.00
1351;DHT22;669;50.206;9.998;2024-03-17T08:34:41;11.40;1.00
1351;DHT22;669;50.206;9.998;2024-03-17T08:37:08;11.60;1.00
1351;DHT22;669;50.206;9.998;2024-03-17T08:39:36;11.90;1.00
1351;DHT22;669;50.206;9.998;2024-03-17T08:42:03;12.10;1.00
1351;DHT22;669;50.206;9.998;2024-03-17T08:44:30;12.20;1.00
1351;DHT22;669;50.206;9.998;2024-03-17T08:46:57;12.80;1.00
1351;DHT22;669;50.206;9.998;2024-03-17T08:49:24;13.30;1.00
1351;DHT22;669;50.206;9.998;2024-03-17T08:51:51;13.80;1.00
1351;DHT22;669;50.206;9.998;2024-03-17T08:54:18;13.90;1.00
1351;DHT22;669;50.206;9.998;2024-03-17T08:56:47;13.60;1.00
1351;DHT22;669;50.206;9.998;2024-03-17T08:59:15;14.10;1.00
1351;DHT22;669;50.206;9.998;2024-03-17T09:01:42;14.60;1.00
1351;DHT22;669;50.206;9.998;2024-03-17T09:04:09;15.00;1.00
1351;DHT22;669;50.206;9.998;2024-03-17T09:06:37;15.20;1.00
1351;DHT22;669;50.206;9.998;2024-03-17T09:09:04;15.30;1.00
1351;DHT22;669;50.206;9.998;2024-03-17T09:11:31;15.70;1.00
1351;DHT22;669;50.206;9.998;2024-03-17T09:14:00;15.80;1.00
1351;DHT22;669;50.206;9.998;2024-03-17T09:16:27;15.90;1.00
1351;DHT22;669;50.206;9.998;2024-03-17T09:18:56;15.50;1.00
1351;DHT22;669;50.206;9.998;2024-03-17T09:21:23;15.70;1.00
1351;DHT22;669;50.206;9.998;2024-03-17T09:23:50;16.00;1.00
1351;DHT22;669;50.206;9.998;2024-03-17T09:26:17;16.30;1.00
1351;DHT22;669;50.206;9.998;2024-03-17T09:28:44;16.40;1.00
1351;DHT22;669;50.206;9.998;2024-03-17T09:31:13;16.60;1.00
1351;DHT22;669;50.206;9.998;2024-03-17T09:33:40;16.80;1.00
1351;DHT22;669;50.206;9.998;2024-03-17T09:36:08;17.20;1.00
1351;DHT22;669;50.206;9.998;2024-03-17T09:38:37;17.30;1.00
1351;DHT22;669;50.206;9.998;2024-03-17T09:41:06;17.40;1.00
1351;DHT22;669;50.206;9.998;2024-03-17T09:43:35;16.70;1.00
1351;DHT22;669;50.206;9.998;2024-03-17T09:46:02;16.30;1.00
1351;DHT22;669;50.206;9.998;2024-03-17T09:48:31;16.00;1.00
1351;DHT22;669;50.206;9.998;2024-03-17T09:50:59;15.70;1.00
1351;DHT22;669;50.206;9.998;2024-03-17T09:53:28;15.40;1.00
1351;DHT22;669;50.206;9.998;2024-03-17T09:55:58;15.10;1.00
1351;DHT22;669;50.206;9.998;2024-03-17T09:58:25;15.20;1.00
1351;DHT22;669;50.206;9.998;2024-03-17T10:00:53;15.00;1.00
1351;DHT22;669;50.206;9.998;2024-03-17T10:03:43;14.60;1.00
1351;DHT22;669;50.206;9.998;2024-03-17T10:06:12;14.50;1.00
1351;DHT22;669;50.206;9.998;2024-03-17T10:08:43;14.80;1.00
1351;DHT22;669;50.206;9.998;2024-03-17T10:11:10;14.40;1.00
1351;DHT22;669;50.206;9.998;2024-03-17T10:13:38;14.70;1.00
1351;DHT22;669;50.206;9.998;2024-03-17T10:16:05;14.90;1.00
1351;DHT22;669;50.206;9.998;2024-03-17T10:18:32;15.40;1.00
1351;DHT22;669;50.206;9.998;2024-03-17T10:21:01;15.30;1.00
1351;DHT22;669;50.206;9.998;2024-03-17T10:23:28;15.10;1.00
1351;DHT22;669;50.206;9.998;2024-03-17T10:25:55;15.20;1.00
1351;DHT22;669;50.206;9.998;2024-03-17T10:28:22;15.60;1.00
1351;DHT22;669;50.206;9.998;2024-03-17T10:30:59;16.10;1.00
1351;DHT22;669;50.206;9.998;2024-03-17T10:33:27;16.40;1.00
1351;DHT22;669;50.206;9.998;2024-03-17T10:35:58;16.30;1.00
1351;DHT22;669;50.206;9.998;2024-03-17T10:38:29;16.10;1.00
1351;DHT22;669;50.206;9.998;2024-03-17T10:40:56;16.10;1.00
1351;DHT22;669;50.206;9.998;2024-03-17T10:43:23;15.90;1.00
1351;DHT22;669;50.206;9.998;2024-03-17T10:45:52;16.30;1.00
1351;DHT22;669;50.206;9.998;2024-03-17T10:48:21;16.40;1.00
1351;DHT22;669;50.206;9.998;2024-03-17T10:50:53;16.80;1.00
1351;DHT22;669;50.206;9.998;2024-03-17T10:53:23;16.80;1.00
1351;DHT22;669;50.206;9.998;2024-03-17T10:56:03;16.90;1.00
1351;DHT22;669;50.206;9.998;2024-03-17T10:58:34;16.90;1.00
1351;DHT22;669;50.206;9.998;2024-03-17T11:01:03;16.70;1.00
1351;DHT22;669;50.206;9.998;2024-03-17T11:03:34;16.60;1.00
1351;DHT22;669;50.206;9.998;2024-03-17T11:06:03;16.70;1.00
1351;DHT22;669;50.206;9.998;2024-03-17T11:08:32;17.00;1.00
1351;DHT22;669;50.206;9.998;2024-03-17T11:11:01;16.70;1.00
1351;DHT22;669;50.206;9.998;2024-03-17T11:13:30;16.70;1.00
1351;DHT22;669;50.206;9.998;2024-03-17T11:15:58;16.70;1.00
1351;DHT22;669;50.206;9.998;2024-03-17T11:18:34;16.80;1.00
1351;DHT22;669;50.206;9.998;2024-03-17T11:21:02;17.00;1.00
1351;DHT22;669;50.206;9.998;2024-03-17T11:23:35;17.10;1.00
1351;DHT22;669;50.206;9.998;2024-03-17T11:26:06;16.80;1.00
1351;DHT22;669;50.206;9.998;2024-03-17T11:28:46;16.70;1.00
1351;DHT22;669;50.206;9.998;2024-03-17T11:31:34;17.00;1.00
1351;DHT22;669;50.206;9.998;2024-03-17T11:34:03;17.00;1.00
1351;DHT22;669;50.206;9.998;2024-03-17T11:36:33;16.90;1.00
1351;DHT22;669;50.206;9.998;2024-03-17T11:39:03;16.40;1.00
1351;DHT22;669;50.206;9.998;2024-03-17T11:41:38;16.10;1.00
1351;DHT22;669;50.206;9.998;2024-03-17T11:44:24;16.10;1.00
1351;DHT22;669;50.206;9.998;2024-03-17T11:46:52;16.00;1.00
1351;DHT22;669;50.206;9.998;2024-03-17T11:49:20;15.90;1.00
1351;DHT22;669;50.206;9.998;2024-03-17T11:51:48;15.60;1.00
1351;DHT22;669;50.206;9.998;2024-03-17T11:54:15;15.40;1.00
1351;DHT22;669;50.206;9.998;2024-03-17T11:56:48;15.10;1.00
1351;DHT22;669;50.206;9.998;2024-03-17T11:59:15;15.20;1.00
1351;DHT22;669;50.206;9.998;2024-03-17T12:01:44;15.50;1.00
1351;DHT22;669;50.206;9.998;2024-03-17T12:04:12;15.80;1.00
1351;DHT22;669;50.206;9.998;2024-03-17T12:06:43;16.00;1.00
1351;DHT22;669;50.206;9.998;2024-03-17T12:09:19;16.00;1.00
1351;DHT22;669;50.206;9.998;2024-03-17T12:11:49;16.10;1.00
1351;DHT22;669;50.206;9.998;2024-03-17T12:14:17;16.10;1.00
1351;DHT22;669;50.206;9.998;2024-03-17T12:16:51;16.00;1.00
1351;DHT22;669;50.206;9.998;2024-03-17T12:19:18;16.00;1.00
1351;DHT22;669;50.206;9.998;2024-03-17T12:21:47;15.70;1.00
1351;DHT22;669;50.206;9.998;2024-03-17T12:24:16;15.50;1.00
1351;DHT22;669;50.206;9.998;2024-03-17T12:26:43;15.60;1.00
1351;DHT22;669;50.206;9.998;2024-03-17T12:29:24;15.80;1.00
1351;DHT22;669;50.206;9.998;2024-03-17T12:31:54;15.70;1.00
1351;DHT22;669;50.206;9.998;2024-03-17T12:34:22;15.60;1.00
1351;DHT22;669;50.206;9.998;2024-03-17T12:36:54;15.60;1.00
1351;DHT22;669;50.206;9.998;2024-03-17T12:39:22;15.60;1.00
1351;DHT22;669;50.206;9.998;2024-03-17T12:42:05;15.80;1.00
1351;DHT22;669;50.206;9.998;2024-03-17T12:44:34;15.60;1.00
1351;DHT22;669;50.206;9.998;2024-03-17T12:47:02;15.50;1.00
1351;DHT22;669;50.206;9.998;2024-03-17T12:49:29;15.50;1.00
1351;DHT22;669;50.206;9.998;2024-03-17T12:51:57;15.60;1.00
1351;DHT22;669;50.206;9.998;2024-03-17T12:54:24;15.60;1.00
1351;DHT22;669;50.206;9.998;2024-03-17T12:57:02;15.50;1.00
1351;DHT22;669;50.206;9.998;2024-03-17T12:59:48;15.30;1.00
1351;DHT22;669;50.206;9.998;2024-03-17T13:02:33;15.10;1.00
1351;DHT22;669;50.206;9.998;2024-03-17T13:05:10;15.00;1.00
1351;DHT22;669;50.206;9.998;2024-03-17T13:07:37;15.00;1.00
1351;DHT22;669;50.206;9.998;2024-03-17T13:10:04;14.90;1.00
1351;DHT22;669;50.206;9.998;2024-03-17T13:12:33;14.90;1.00
1351;DHT22;669;50.206;9.998;2024-03-17T13:15:01;14.70;1.00
1351;DHT22;669;50.206;9.998;2024-03-17T13:17:28;14.50;1.00
1351;DHT22;669;50.206;9.998;2024-03-17T13:19:56;14.40;1.00
1351;DHT22;669;50.206;9.998;2024-03-17T13:22:23;14.30;1.00
1351;DHT22;669;50.206;9.998;2024-03-17T13:24:50;14.30;1.00
1351;DHT22;669;50.206;9.998;2024-03-17T13:27:17;14.20;1.00
1351;DHT22;669;50.206;9.998;2024-03-17T13:29:47;14.20;1.00
1351;DHT22;669;50.206;9.998;2024-03-17T13:32:16;14.10;1.00
1351;DHT22;669;50.206;9.998;2024-03-17T13:34:44;14.00;1.00
1351;DHT22;669;50.206;9.998;2024-03-17T13:37:11;14.10;1.00
1351;DHT22;669;50.206;9.998;2024-03-17T13:39:38;14.10;1.00
1351;DHT22;669;50.206;9.998;2024-03-17T13:42:05;14.10;1.00
1351;DHT22;669;50.206;9.998;2024-03-17T13:44:33;14.10;1.00
1351;DHT22;669;50.206;9.998;2024-03-17T13:47:00;14.00;1.00
1351;DHT22;669;50.206;9.998;2024-03-17T13:49:30;13.80;1.00
1351;DHT22;669;50.206;9.998;2024-03-17T13:51:57;13.70;1.00
1351;DHT22;669;50.206;9.998;2024-03-17T13:54:24;13.60;1.00
1351;DHT22;669;50.206;9.998;2024-03-17T13:56:51;13.40;1.00
1351;DHT22;669;50.206;9.998;2024-03-17T13:59:18;13.40;1.00
1351;DHT22;669;50.206;9.998;2024-03-17T14:01:45;13.40;1.00
1351;DHT22;669;50.206;9.998;2024-03-17T14:04:14;13.40;1.00
1351;DHT22;669;50.206;9.998;2024-03-17T14:06:45;13.50;1.00
1351;DHT22;669;50.206;9.998;2024-03-17T14:09:12;13.60;1.00
1351;DHT22;669;50.206;9.998;2024-03-17T14:11:40;13.60;1.00
1351;DHT22;669;50.206;9.998;2024-03-17T14:14:08;13.50;1.00
1351;DHT22;669;50.206;9.998;2024-03-17T14:16:35;13.50;1.00
1351;DHT22;669;50.206;9.998;2024-03-17T14:19:02;13.40;1.00
1351;DHT22;669;50.206;9.998;2024-03-17T14:21:29;13.30;1.00
1351;DHT22;669;50.206;9.998;2024-03-17T14:23:57;13.20;1.00
1351;DHT22;669;50.206;9.998;2024-03-17T14:26:25;13.20;1.00
1351;DHT22;669;50.206;9.998;2024-03-17T14:28:52;13.20;1.00
1351;DHT22;669;50.206;9.998;2024-03-17T14:31:20;13.10;1.00
1351;DHT22;669;50.206;9.998;2024-03-17T14:33:47;13.10;1.00
1351;DHT22;669;50.206;9.998;2024-03-17T14:36:14;13.10;1.00
1351;DHT22;669;50.206;9.998;2024-03-17T14:38:40;13.00;1.00
1351;DHT22;669;50.206;9.998;2024-03-17T14:41:10;13.00;1.00
1351;DHT22;669;50.206;9.998;2024-03-17T14:43:38;13.00;1.00
1351;DHT22;669;50.206;9.998;2024-03-17T14:46:05;12.90;1.00
1351;DHT22;669;50.206;9.998;2024-03-17T14:48:34;12.80;1.00
1351;DHT22;669;50.206;9.998;2024-03-17T14:51:02;12.80;1.00
1351;DHT22;669;50.206;9.998;2024-03-17T14:53:29;12.80;1.00
1351;DHT22;669;50.206;9.998;2024-03-17T14:55:56;12.80;1.00
1351;DHT22;669;50.206;9.998;2024-03-17T14:58:26;12.90;1.00
1351;DHT22;669;50.206;9.998;2024-03-17T15:00:53;13.00;1.00
1351;DHT22;669;50.206;9.998;2024-03-17T15:03:20;13.00;1.00
1351;DHT22;669;50.206;9.998;2024-03-17T15:05:47;13.10;1.00
1351;DHT22;669;50.206;9.998;2024-03-17T15:08:14;13.00;1.00
1351;DHT22;669;50.206;9.998;2024-03-17T15:10:41;13.10;1.00
1351;DHT22;669;50.206;9.998;2024-03-17T15:13:08;13.20;1.00
1351;DHT22;669;50.206;9.998;2024-03-17T15:15:37;13.10;1.00
1351;DHT22;669;50.206;9.998;2024-03-17T15:18:04;13.00;1.00
1351;DHT22;669;50.206;9.998;2024-03-17T15:20:31;13.00;1.00
1351;DHT22;669;50.206;9.998;2024-03-17T15:22:58;13.10;1.00
1351;DHT22;669;50.206;9.998;2024-03-17T15:25:26;13.10;1.00
1351;DHT22;669;50.206;9.998;2024-03-17T15:27:54;13.10;1.00
1351;DHT22;669;50.206;9.998;2024-03-17T15:30:21;13.10;1.00
1351;DHT22;669;50.206;9.998;2024-03-17T15:32:53;13.10;1.00
1351;DHT22;669;50.206;9.998;2024-03-17T15:35:20;13.00;1.00
1351;DHT22;669;50.206;9.998;2024-03-17T15:37:47;13.00;1.00
1351;DHT22;669;50.206;9.998;2024-03-17T15:40:14;13.00;1.00
1351;DHT22;669;50.206;9.998;2024-03-17T15:42:43;12.90;1.00
1351;DHT22;669;50.206;9.998;2024-03-17T15:45:11;12.80;1.00
1351;DHT22;669;50.206;9.998;2024-03-17T15:47:38;12.70;1.00
1351;DHT22;669;50.206;9.998;2024-03-17T15:50:07;12.60;1.00
1351;DHT22;669;50.206;9.998;2024-03-17T15:52:34;12.50;1.00
1351;DHT22;669;50.206;9.998;2024-03-17T15:55:03;12.50;1.00
1351;DHT22;669;50.206;9.998;2024-03-17T15:57:30;12.40;1.00
1351;DHT22;669;50.206;9.998;2024-03-17T15:59:57;12.40;1.00
1351;DHT22;669;50.206;9.998;2024-03-17T16:02:25;12.40;1.00
1351;DHT22;669;50.206;9.998;2024-03-17T16:04:53;12.30;1.00
1351;DHT22;669;50.206;9.998;2024-03-17T16:07:22;12.20;1.00
1351;DHT22;669;50.206;9.998;2024-03-17T16:09:50;12.20;1.00
1351;DHT22;669;50.206;9.998;2024-03-17T16:12:19;12.10;1.00
1351;DHT22;669;50.206;9.998;2024-03-17T16:14:46;12.10;1.00
1351;DHT22;669;50.206;9.998;2024-03-17T16:17:15;12.00;1.00
1351;DHT22;669;50.206;9.998;2024-03-17T16:19:42;12.00;1.00
1351;DHT22;669;50.206;9.998;2024-03-17T16:22:13;11.90;1.00
1351;DHT22;669;50.206;9.998;2024-03-17T16:24:42;11.90;1.00
1351;DHT22;669;50.206;9.998;2024-03-17T16:27:10;11.90;1.00
1351;DHT22;669;50.206;9.998;2024-03-17T16:29:39;11.80;1.00
1351;DHT22;669;50.206;9.998;2024-03-17T16:32:09;11.80;1.00
1351;DHT22;669;50.206;9.998;2024-03-17T16:34:37;11.80;1.00
1351;DHT22;669;50.206;9.998;2024-03-17T16:37:04;11.80;1.00
1351;DHT22;669;50.206;9.998;2024-03-17T16:39:31;11.80;1.00
1351;DHT22;669;50.206;9.998;2024-03-17T16:42:00;11.80;1.00